Isle of Anglesey, United Kingdom
Current Conditions -  °F | °C
As of 8:50 AM on Sunday 26 Oct 2014 (Local Time) from EGOV Reporting Station
Light Rain Light Rain  
Wind Chill: 57°   Ceiling: 4500
Heat Index: 57°   Visibility: 6mi
Dew Point: 54°   Wind: 33mph
Humidity: 88%   Direction: 220°SW
Pressure: 29.91"   Gusts: NA
Location:  53.28°N, 4.35°W
Report Text: EGOV 260750Z AUTO 22029KT 9000 -RADZ FEW022/// BKN045/// 14/12 Q1013
Loading
Personal Weather Stations






























Interactive Weather Map
Tropical Storm Tracking
New forecast layout! Learn more

10-Day Weather Forecast

Advertisements
Track Severe Weather on mobile